sensor_id;sensor_type;location;lat;lon;timestamp;P1;durP1;ratioP1;P2;durP2;ratioP2
20365;SDS011;10341;49.894;8.822;2024-02-28T00:03:52;20.08;;;11.60;;
20365;SDS011;10341;49.894;8.822;2024-02-28T00:09:11;21.30;;;10.93;;
20365;SDS011;10341;49.894;8.822;2024-02-28T00:14:32;20.90;;;11.30;;
20365;SDS011;10341;49.894;8.822;2024-02-28T00:19:51;21.15;;;11.25;;
20365;SDS011;10341;49.894;8.822;2024-02-28T00:25:11;23.52;;;12.02;;
20365;SDS011;10341;49.894;8.822;2024-02-28T00:30:32;29.00;;;13.02;;
20365;SDS011;10341;49.894;8.822;2024-02-28T00:35:51;23.20;;;12.30;;
20365;SDS011;10341;49.894;8.822;2024-02-28T00:41:12;26.35;;;14.07;;
20365;SDS011;10341;49.894;8.822;2024-02-28T00:46:31;21.20;;;10.80;;
20365;SDS011;10341;49.894;8.822;2024-02-28T00:57:10;20.40;;;10.88;;
20365;SDS011;10341;49.894;8.822;2024-02-28T01:02:30;22.10;;;10.95;;
20365;SDS011;10341;49.894;8.822;2024-02-28T01:07:50;20.63;;;9.88;;
20365;SDS011;10341;49.894;8.822;2024-02-28T01:13:09;19.48;;;10.38;;
20365;SDS011;10341;49.894;8.822;2024-02-28T01:23:51;21.05;;;10.38;;
20365;SDS011;10341;49.894;8.822;2024-02-28T01:29:10;19.42;;;9.93;;
20365;SDS011;10341;49.894;8.822;2024-02-28T01:34:30;21.60;;;10.48;;
20365;SDS011;10341;49.894;8.822;2024-02-28T01:39:50;17.25;;;9.75;;
20365;SDS011;10341;49.894;8.822;2024-02-28T01:45:12;16.80;;;8.40;;
20365;SDS011;10341;49.894;8.822;2024-02-28T01:50:33;21.60;;;10.65;;
20365;SDS011;10341;49.894;8.822;2024-02-28T01:55:53;23.00;;;11.73;;
20365;SDS011;10341;49.894;8.822;2024-02-28T02:01:16;27.13;;;12.80;;
20365;SDS011;10341;49.894;8.822;2024-02-28T02:06:42;24.02;;;12.30;;
20365;SDS011;10341;49.894;8.822;2024-02-28T02:12:03;25.08;;;11.57;;
20365;SDS011;10341;49.894;8.822;2024-02-28T02:17:23;28.63;;;13.13;;
20365;SDS011;10341;49.894;8.822;2024-02-28T02:22:42;29.15;;;14.45;;
20365;SDS011;10341;49.894;8.822;2024-02-28T02:28:01;27.13;;;13.23;;
20365;SDS011;10341;49.894;8.822;2024-02-28T02:33:22;27.95;;;13.10;;
20365;SDS011;10341;49.894;8.822;2024-02-28T02:38:41;29.90;;;12.85;;
20365;SDS011;10341;49.894;8.822;2024-02-28T02:49:19;31.48;;;13.23;;
20365;SDS011;10341;49.894;8.822;2024-02-28T02:54:39;29.08;;;13.60;;
20365;SDS011;10341;49.894;8.822;2024-02-28T02:59:59;23.80;;;11.27;;
20365;SDS011;10341;49.894;8.822;2024-02-28T03:05:18;22.95;;;10.98;;
20365;SDS011;10341;49.894;8.822;2024-02-28T03:10:39;21.73;;;11.13;;
20365;SDS011;10341;49.894;8.822;2024-02-28T03:15:58;22.77;;;11.02;;
20365;SDS011;10341;49.894;8.822;2024-02-28T03:26:36;25.55;;;11.50;;
20365;SDS011;10341;49.894;8.822;2024-02-28T03:31:57;29.20;;;12.75;;
20365;SDS011;10341;49.894;8.822;2024-02-28T03:37:17;25.00;;;11.93;;
20365;SDS011;10341;49.894;8.822;2024-02-28T03:42:36;26.30;;;11.88;;
20365;SDS011;10341;49.894;8.822;2024-02-28T03:47:56;27.75;;;12.88;;
20365;SDS011;10341;49.894;8.822;2024-02-28T03:53:16;31.00;;;13.55;;
20365;SDS011;10341;49.894;8.822;2024-02-28T03:58:35;28.88;;;13.82;;
20365;SDS011;10341;49.894;8.822;2024-02-28T04:09:13;30.20;;;13.10;;
20365;SDS011;10341;49.894;8.822;2024-02-28T04:14:32;27.45;;;12.60;;
20365;SDS011;10341;49.894;8.822;2024-02-28T04:19:51;23.55;;;10.70;;
20365;SDS011;10341;49.894;8.822;2024-02-28T04:25:10;25.85;;;11.85;;
20365;SDS011;10341;49.894;8.822;2024-02-28T04:30:30;23.40;;;10.98;;
20365;SDS011;10341;49.894;8.822;2024-02-28T04:35:50;32.15;;;13.60;;
20365;SDS011;10341;49.894;8.822;2024-02-28T04:41:09;32.45;;;14.45;;
20365;SDS011;10341;49.894;8.822;2024-02-28T04:46:28;33.45;;;14.95;;
20365;SDS011;10341;49.894;8.822;2024-02-28T04:51:47;31.25;;;13.98;;
20365;SDS011;10341;49.894;8.822;2024-02-28T04:57:06;27.77;;;13.70;;
20365;SDS011;10341;49.894;8.822;2024-02-28T05:02:27;26.23;;;11.95;;
20365;SDS011;10341;49.894;8.822;2024-02-28T05:07:46;30.42;;;13.65;;
20365;SDS011;10341;49.894;8.822;2024-02-28T05:13:05;28.95;;;13.25;;
20365;SDS011;10341;49.894;8.822;2024-02-28T05:18:25;28.42;;;12.85;;
20365;SDS011;10341;49.894;8.822;2024-02-28T05:23:44;29.65;;;12.40;;
20365;SDS011;10341;49.894;8.822;2024-02-28T05:29:03;27.60;;;13.07;;
20365;SDS011;10341;49.894;8.822;2024-02-28T05:34:23;28.25;;;12.95;;
20365;SDS011;10341;49.894;8.822;2024-02-28T05:39:43;27.92;;;12.25;;
20365;SDS011;10341;49.894;8.822;2024-02-28T05:45:02;24.90;;;11.32;;
20365;SDS011;10341;49.894;8.822;2024-02-28T05:50:21;27.02;;;12.93;;
20365;SDS011;10341;49.894;8.822;2024-02-28T05:55:40;27.63;;;12.80;;
20365;SDS011;10341;49.894;8.822;2024-02-28T06:00:59;27.35;;;13.02;;
20365;SDS011;10341;49.894;8.822;2024-02-28T06:06:18;31.63;;;14.40;;
20365;SDS011;10341;49.894;8.822;2024-02-28T06:11:38;33.88;;;14.63;;
20365;SDS011;10341;49.894;8.822;2024-02-28T06:16:58;32.10;;;14.25;;
20365;SDS011;10341;49.894;8.822;2024-02-28T06:22:17;26.90;;;13.00;;
20365;SDS011;10341;49.894;8.822;2024-02-28T06:27:37;27.35;;;12.43;;
20365;SDS011;10341;49.894;8.822;2024-02-28T06:32:58;34.63;;;14.60;;
20365;SDS011;10341;49.894;8.822;2024-02-28T06:38:19;35.45;;;15.93;;
20365;SDS011;10341;49.894;8.822;2024-02-28T06:43:38;37.05;;;16.25;;
20365;SDS011;10341;49.894;8.822;2024-02-28T06:48:58;50.55;;;22.98;;
20365;SDS011;10341;49.894;8.822;2024-02-28T06:54:17;51.33;;;21.13;;
20365;SDS011;10341;49.894;8.822;2024-02-28T06:59:36;35.15;;;15.70;;
20365;SDS011;10341;49.894;8.822;2024-02-28T07:04:55;30.98;;;14.32;;
20365;SDS011;10341;49.894;8.822;2024-02-28T07:10:14;32.53;;;15.20;;
20365;SDS011;10341;49.894;8.822;2024-02-28T07:15:34;31.38;;;13.60;;
20365;SDS011;10341;49.894;8.822;2024-02-28T07:26:14;31.80;;;13.83;;
20365;SDS011;10341;49.894;8.822;2024-02-28T07:31:34;34.92;;;15.57;;
20365;SDS011;10341;49.894;8.822;2024-02-28T07:36:53;33.42;;;16.23;;
20365;SDS011;10341;49.894;8.822;2024-02-28T07:47:32;30.35;;;15.18;;
20365;SDS011;10341;49.894;8.822;2024-02-28T07:58:14;33.97;;;15.93;;
20365;SDS011;10341;49.894;8.822;2024-02-28T08:03:35;33.85;;;16.25;;
20365;SDS011;10341;49.894;8.822;2024-02-28T08:08:54;33.47;;;16.02;;
20365;SDS011;10341;49.894;8.822;2024-02-28T08:14:14;41.80;;;18.40;;
20365;SDS011;10341;49.894;8.822;2024-02-28T08:24:54;43.30;;;18.38;;
20365;SDS011;10341;49.894;8.822;2024-02-28T08:30:13;44.22;;;19.65;;
20365;SDS011;10341;49.894;8.822;2024-02-28T08:40:52;46.17;;;19.10;;
20365;SDS011;10341;49.894;8.822;2024-02-28T08:46:14;43.53;;;18.38;;
20365;SDS011;10341;49.894;8.822;2024-02-28T08:51:36;44.03;;;19.65;;
20365;SDS011;10341;49.894;8.822;2024-02-28T09:02:15;44.90;;;20.13;;
20365;SDS011;10341;49.894;8.822;2024-02-28T09:12:54;40.15;;;17.70;;
20365;SDS011;10341;49.894;8.822;2024-02-28T09:18:14;37.13;;;18.30;;
20365;SDS011;10341;49.894;8.822;2024-02-28T09:23:34;35.30;;;17.05;;
20365;SDS011;10341;49.894;8.822;2024-02-28T09:28:52;37.63;;;17.90;;
20365;SDS011;10341;49.894;8.822;2024-02-28T09:34:12;35.08;;;16.77;;
20365;SDS011;10341;49.894;8.822;2024-02-28T09:39:32;37.45;;;17.05;;
20365;SDS011;10341;49.894;8.822;2024-02-28T09:44:51;34.70;;;16.27;;
20365;SDS011;10341;49.894;8.822;2024-02-28T09:50:11;31.33;;;15.23;;
20365;SDS011;10341;49.894;8.822;2024-02-28T09:55:31;35.15;;;17.48;;
20365;SDS011;10341;49.894;8.822;2024-02-28T10:00:51;35.97;;;17.20;;
20365;SDS011;10341;49.894;8.822;2024-02-28T10:06:13;32.15;;;15.90;;
20365;SDS011;10341;49.894;8.822;2024-02-28T10:11:34;32.17;;;16.40;;
20365;SDS011;10341;49.894;8.822;2024-02-28T10:16:56;33.17;;;16.35;;
20365;SDS011;10341;49.894;8.822;2024-02-28T10:22:16;30.08;;;16.70;;
20365;SDS011;10341;49.894;8.822;2024-02-28T10:27:35;27.50;;;15.57;;
20365;SDS011;10341;49.894;8.822;2024-02-28T10:32:55;27.85;;;15.70;;
20365;SDS011;10341;49.894;8.822;2024-02-28T10:38:15;24.08;;;14.60;;
20365;SDS011;10341;49.894;8.822;2024-02-28T10:43:34;23.40;;;14.50;;
20365;SDS011;10341;49.894;8.822;2024-02-28T10:48:53;25.43;;;16.03;;
20365;SDS011;10341;49.894;8.822;2024-02-28T10:54:13;24.95;;;14.93;;
20365;SDS011;10341;49.894;8.822;2024-02-28T10:59:33;26.90;;;15.32;;
20365;SDS011;10341;49.894;8.822;2024-02-28T11:04:54;24.13;;;14.45;;
20365;SDS011;10341;49.894;8.822;2024-02-28T11:10:15;21.42;;;14.40;;
20365;SDS011;10341;49.894;8.822;2024-02-28T11:15:34;21.90;;;14.30;;
20365;SDS011;10341;49.894;8.822;2024-02-28T11:20:54;21.80;;;13.70;;
20365;SDS011;10341;49.894;8.822;2024-02-28T11:26:14;22.20;;;14.73;;
20365;SDS011;10341;49.894;8.822;2024-02-28T11:36:53;23.73;;;15.73;;
20365;SDS011;10341;49.894;8.822;2024-02-28T11:42:15;22.52;;;14.88;;
20365;SDS011;10341;49.894;8.822;2024-02-28T11:47:35;21.55;;;14.02;;
20365;SDS011;10341;49.894;8.822;2024-02-28T11:58:14;22.25;;;14.57;;
20365;SDS011;10341;49.894;8.822;2024-02-28T12:03:34;20.10;;;14.13;;
20365;SDS011;10341;49.894;8.822;2024-02-28T12:08:54;22.58;;;14.13;;
20365;SDS011;10341;49.894;8.822;2024-02-28T12:14:13;20.95;;;14.05;;
20365;SDS011;10341;49.894;8.822;2024-02-28T12:24:53;19.15;;;12.95;;
20365;SDS011;10341;49.894;8.822;2024-02-28T12:30:12;19.42;;;11.00;;
20365;SDS011;10341;49.894;8.822;2024-02-28T12:35:32;20.65;;;13.88;;
20365;SDS011;10341;49.894;8.822;2024-02-28T12:40:51;18.48;;;12.90;;
20365;SDS011;10341;49.894;8.822;2024-02-28T12:46:11;21.23;;;12.75;;
20365;SDS011;10341;49.894;8.822;2024-02-28T12:51:38;17.98;;;11.95;;
20365;SDS011;10341;49.894;8.822;2024-02-28T12:57:05;14.48;;;10.25;;
20365;SDS011;10341;49.894;8.822;2024-02-28T13:02:25;9.73;;;6.70;;
20365;SDS011;10341;49.894;8.822;2024-02-28T13:13:04;10.73;;;7.25;;
20365;SDS011;10341;49.894;8.822;2024-02-28T13:18:23;10.82;;;7.75;;
20365;SDS011;10341;49.894;8.822;2024-02-28T13:23:44;10.45;;;6.72;;
20365;SDS011;10341;49.894;8.822;2024-02-28T13:29:03;13.70;;;6.90;;
20365;SDS011;10341;49.894;8.822;2024-02-28T13:34:23;11.88;;;7.10;;
20365;SDS011;10341;49.894;8.822;2024-02-28T13:39:42;11.77;;;7.60;;
20365;SDS011;10341;49.894;8.822;2024-02-28T13:45:02;13.90;;;8.10;;
20365;SDS011;10341;49.894;8.822;2024-02-28T13:50:26;10.80;;;6.82;;
20365;SDS011;10341;49.894;8.822;2024-02-28T13:55:50;11.15;;;5.95;;
20365;SDS011;10341;49.894;8.822;2024-02-28T14:01:11;10.25;;;6.80;;
20365;SDS011;10341;49.894;8.822;2024-02-28T14:06:30;9.40;;;6.13;;
20365;SDS011;10341;49.894;8.822;2024-02-28T14:11:49;9.93;;;6.07;;
20365;SDS011;10341;49.894;8.822;2024-02-28T14:17:09;8.63;;;4.97;;
20365;SDS011;10341;49.894;8.822;2024-02-28T14:22:28;8.57;;;5.60;;
20365;SDS011;10341;49.894;8.822;2024-02-28T14:27:51;6.25;;;4.18;;
20365;SDS011;10341;49.894;8.822;2024-02-28T14:33:10;4.80;;;3.30;;
20365;SDS011;10341;49.894;8.822;2024-02-28T14:38:30;3.17;;;2.08;;
20365;SDS011;10341;49.894;8.822;2024-02-28T14:43:50;4.78;;;2.55;;
20365;SDS011;10341;49.894;8.822;2024-02-28T14:49:09;5.22;;;3.33;;
20365;SDS011;10341;49.894;8.822;2024-02-28T14:54:29;6.40;;;4.00;;
20365;SDS011;10341;49.894;8.822;2024-02-28T14:59:48;6.37;;;3.57;;
20365;SDS011;10341;49.894;8.822;2024-02-28T15:05:08;4.45;;;3.30;;
20365;SDS011;10341;49.894;8.822;2024-02-28T15:10:27;5.03;;;3.42;;
20365;SDS011;10341;49.894;8.822;2024-02-28T15:15:47;4.43;;;3.03;;
20365;SDS011;10341;49.894;8.822;2024-02-28T15:21:07;4.95;;;3.13;;
20365;SDS011;10341;49.894;8.822;2024-02-28T15:26:26;3.92;;;2.25;;
20365;SDS011;10341;49.894;8.822;2024-02-28T15:31:45;3.72;;;2.40;;
20365;SDS011;10341;49.894;8.822;2024-02-28T15:37:06;3.85;;;2.28;;
20365;SDS011;10341;49.894;8.822;2024-02-28T15:42:27;3.33;;;2.08;;
20365;SDS011;10341;49.894;8.822;2024-02-28T15:47:47;3.80;;;2.38;;
20365;SDS011;10341;49.894;8.822;2024-02-28T15:53:06;2.67;;;1.90;;
20365;SDS011;10341;49.894;8.822;2024-02-28T15:58:26;2.83;;;1.77;;
20365;SDS011;10341;49.894;8.822;2024-02-28T16:03:46;2.72;;;1.63;;
20365;SDS011;10341;49.894;8.822;2024-02-28T16:09:05;2.38;;;1.73;;
20365;SDS011;10341;49.894;8.822;2024-02-28T16:19:45;1.70;;;1.23;;
20365;SDS011;10341;49.894;8.822;2024-02-28T16:25:07;1.52;;;1.20;;
20365;SDS011;10341;49.894;8.822;2024-02-28T16:30:26;2.70;;;1.63;;
20365;SDS011;10341;49.894;8.822;2024-02-28T16:35:46;2.50;;;1.83;;
20365;SDS011;10341;49.894;8.822;2024-02-28T16:41:05;4.90;;;3.00;;
20365;SDS011;10341;49.894;8.822;2024-02-28T16:51:45;3.75;;;2.20;;
20365;SDS011;10341;49.894;8.822;2024-02-28T16:57:04;5.28;;;2.00;;
20365;SDS011;10341;49.894;8.822;2024-02-28T17:02:24;4.38;;;2.28;;
20365;SDS011;10341;49.894;8.822;2024-02-28T17:07:43;3.25;;;2.03;;
20365;SDS011;10341;49.894;8.822;2024-02-28T17:13:03;5.28;;;2.88;;
20365;SDS011;10341;49.894;8.822;2024-02-28T17:23:42;15.10;;;6.35;;
20365;SDS011;10341;49.894;8.822;2024-02-28T17:29:02;7.88;;;3.55;;
20365;SDS011;10341;49.894;8.822;2024-02-28T17:34:21;5.60;;;3.27;;
20365;SDS011;10341;49.894;8.822;2024-02-28T17:39:40;7.27;;;2.30;;
20365;SDS011;10341;49.894;8.822;2024-02-28T17:44:59;4.35;;;2.13;;
20365;SDS011;10341;49.894;8.822;2024-02-28T17:50:20;4.55;;;2.53;;
20365;SDS011;10341;49.894;8.822;2024-02-28T17:55:43;4.20;;;2.28;;
20365;SDS011;10341;49.894;8.822;2024-02-28T18:01:02;3.60;;;2.07;;
20365;SDS011;10341;49.894;8.822;2024-02-28T18:06:24;1.95;;;1.55;;
20365;SDS011;10341;49.894;8.822;2024-02-28T18:11:43;3.50;;;2.67;;
20365;SDS011;10341;49.894;8.822;2024-02-28T18:17:03;5.97;;;3.10;;
20365;SDS011;10341;49.894;8.822;2024-02-28T18:22:23;4.43;;;2.65;;
20365;SDS011;10341;49.894;8.822;2024-02-28T18:27:42;3.77;;;2.40;;
20365;SDS011;10341;49.894;8.822;2024-02-28T18:33:01;4.38;;;2.42;;
20365;SDS011;10341;49.894;8.822;2024-02-28T18:38:21;2.60;;;2.00;;
20365;SDS011;10341;49.894;8.822;2024-02-28T18:43:40;4.32;;;2.33;;
20365;SDS011;10341;49.894;8.822;2024-02-28T18:49:01;3.30;;;2.03;;
20365;SDS011;10341;49.894;8.822;2024-02-28T18:54:21;6.05;;;2.30;;
20365;SDS011;10341;49.894;8.822;2024-02-28T18:59:42;5.03;;;3.03;;
20365;SDS011;10341;49.894;8.822;2024-02-28T19:05:01;4.93;;;3.20;;
20365;SDS011;10341;49.894;8.822;2024-02-28T19:15:40;4.78;;;2.50;;
20365;SDS011;10341;49.894;8.822;2024-02-28T19:20:59;3.27;;;2.30;;
20365;SDS011;10341;49.894;8.822;2024-02-28T19:26:18;3.10;;;2.10;;
20365;SDS011;10341;49.894;8.822;2024-02-28T19:31:38;2.75;;;1.85;;
20365;SDS011;10341;49.894;8.822;2024-02-28T19:36:57;2.95;;;1.98;;
20365;SDS011;10341;49.894;8.822;2024-02-28T19:42:16;6.43;;;3.45;;
20365;SDS011;10341;49.894;8.822;2024-02-28T19:52:55;4.32;;;2.47;;
20365;SDS011;10341;49.894;8.822;2024-02-28T20:03:34;3.88;;;2.20;;
20365;SDS011;10341;49.894;8.822;2024-02-28T20:08:54;3.95;;;2.20;;
20365;SDS011;10341;49.894;8.822;2024-02-28T20:14:13;3.65;;;2.35;;
20365;SDS011;10341;49.894;8.822;2024-02-28T20:19:32;3.93;;;2.40;;
20365;SDS011;10341;49.894;8.822;2024-02-28T20:24:51;3.13;;;2.17;;
20365;SDS011;10341;49.894;8.822;2024-02-28T20:30:10;4.13;;;2.47;;
20365;SDS011;10341;49.894;8.822;2024-02-28T20:35:30;4.20;;;2.40;;
20365;SDS011;10341;49.894;8.822;2024-02-28T20:40:50;5.22;;;2.97;;
20365;SDS011;10341;49.894;8.822;2024-02-28T20:46:09;4.25;;;2.67;;
20365;SDS011;10341;49.894;8.822;2024-02-28T20:51:29;4.93;;;3.20;;
20365;SDS011;10341;49.894;8.822;2024-02-28T21:02:08;5.07;;;2.78;;
20365;SDS011;10341;49.894;8.822;2024-02-28T21:07:27;5.05;;;3.13;;
20365;SDS011;10341;49.894;8.822;2024-02-28T21:12:47;6.72;;;3.47;;
20365;SDS011;10341;49.894;8.822;2024-02-28T21:18:07;4.80;;;3.05;;
20365;SDS011;10341;49.894;8.822;2024-02-28T21:28:45;5.93;;;3.65;;
20365;SDS011;10341;49.894;8.822;2024-02-28T21:34:04;4.47;;;3.28;;
20365;SDS011;10341;49.894;8.822;2024-02-28T21:44:43;5.45;;;3.00;;
20365;SDS011;10341;49.894;8.822;2024-02-28T21:50:05;6.25;;;3.08;;
20365;SDS011;10341;49.894;8.822;2024-02-28T21:55:24;7.88;;;3.42;;
20365;SDS011;10341;49.894;8.822;2024-02-28T22:00:43;6.35;;;4.05;;
20365;SDS011;10341;49.894;8.822;2024-02-28T22:06:02;7.82;;;4.05;;
20365;SDS011;10341;49.894;8.822;2024-02-28T22:11:22;9.80;;;4.50;;
20365;SDS011;10341;49.894;8.822;2024-02-28T22:16:41;7.75;;;4.13;;
20365;SDS011;10341;49.894;8.822;2024-02-28T22:22:01;6.72;;;4.65;;
20365;SDS011;10341;49.894;8.822;2024-02-28T22:27:20;8.27;;;4.90;;
20365;SDS011;10341;49.894;8.822;2024-02-28T22:32:39;6.50;;;3.88;;
20365;SDS011;10341;49.894;8.822;2024-02-28T22:37:58;6.43;;;3.78;;
20365;SDS011;10341;49.894;8.822;2024-02-28T22:43:17;6.03;;;3.90;;
20365;SDS011;10341;49.894;8.822;2024-02-28T22:48:38;8.48;;;4.20;;
20365;SDS011;10341;49.894;8.822;2024-02-28T22:53:57;9.65;;;4.82;;
20365;SDS011;10341;49.894;8.822;2024-02-28T22:59:16;7.07;;;3.97;;
20365;SDS011;10341;49.894;8.822;2024-02-28T23:09:55;5.80;;;3.80;;
20365;SDS011;10341;49.894;8.822;2024-02-28T23:15:15;7.32;;;3.80;;
20365;SDS011;10341;49.894;8.822;2024-02-28T23:20:35;6.43;;;3.95;;
20365;SDS011;10341;49.894;8.822;2024-02-28T23:31:13;8.88;;;4.35;;
20365;SDS011;10341;49.894;8.822;2024-02-28T23:36:32;7.65;;;4.55;;
20365;SDS011;10341;49.894;8.822;2024-02-28T23:41:52;8.30;;;4.97;;
20365;SDS011;10341;49.894;8.822;2024-02-28T23:52:31;8.07;;;4.47;;
20365;SDS011;10341;49.894;8.822;2024-02-28T23:57:50;9.38;;;5.22;;
